Time;durP1;ratioP1;P1;durP2;ratioP2;P2;SDS_P1;SDS_P2;PMS_P1;PMS_P2;Temp;Humidity;BMP_temperature;BMP_pressure;BME280_temperature;BME280_humidity;BME280_pressure;Samples;Min_cycle;Max_cycle;Signal;HPM_P1;HPM_P2
2024/03/18 00:00:19;;;;;;;26.93;23.77;;;13.60;98.50;;;;;;5067857;28;20254;-59
2024/03/18 00:02:47;;;;;;;34.57;27.43;;;13.60;98.50;;;;;;5066610;28;20215;-59
2024/03/18 00:05:15;;;;;;;31.77;26.23;;;13.60;98.40;;;;;;5070170;28;20194;-59
2024/03/18 00:07:42;;;;;;;33.73;26.60;;;13.60;98.50;;;;;;5071694;28;20545;-59
2024/03/18 00:10:12;;;;;;;35.63;28.40;;;13.60;98.50;;;;;;5072326;28;20202;-59
2024/03/18 00:12:42;;;;;;;36.50;29.40;;;13.60;98.60;;;;;;5071351;28;20208;-59
2024/03/18 00:15:10;;;;;;;25.60;22.80;;;13.60;98.60;;;;;;5053815;28;20271;-59
2024/03/18 00:17:37;;;;;;;37.00;28.87;;;13.60;98.60;;;;;;5072913;28;20194;-59
2024/03/18 00:20:13;;;;;;;45.07;33.70;;;13.60;98.50;;;;;;5069583;28;20228;-59
2024/03/18 00:22:41;;;;;;;36.10;29.73;;;13.60;98.80;;;;;;5070312;28;20213;-59
2024/03/18 00:25:08;;;;;;;43.77;35.73;;;13.50;98.60;;;;;;5070788;28;20247;-59
2024/03/18 00:27:36;;;;;;;41.57;34.43;;;13.50;98.80;;;;;;5072090;28;20193;-59
2024/03/18 00:30:04;;;;;;;42.57;34.33;;;13.50;98.90;;;;;;5070683;28;20204;-59
2024/03/18 00:32:30;;;;;;;43.57;32.63;;;13.50;99.00;;;;;;5070546;28;20243;-59
2024/03/18 00:34:58;;;;;;;37.80;30.27;;;13.50;99.20;;;;;;5072526;28;20631;-59
2024/03/18 00:37:24;;;;;;;36.70;30.67;;;13.50;99.20;;;;;;5072490;28;20209;-59
2024/03/18 00:39:50;;;;;;;35.03;29.57;;;13.50;99.20;;;;;;5071979;28;20228;-59
2024/03/18 00:42:16;;;;;;;39.63;32.20;;;13.50;99.10;;;;;;5072842;28;20201;-59
2024/03/18 00:44:43;;;;;;;36.27;29.43;;;13.40;99.10;;;;;;5071227;28;20626;-59
2024/03/18 00:47:10;;;;;;;36.27;30.53;;;13.40;99.20;;;;;;5077498;28;20213;-59
2024/03/18 00:49:37;;;;;;;34.63;29.67;;;13.40;99.30;;;;;;5071389;28;20224;-59
2024/03/18 00:52:03;;;;;;;36.57;28.93;;;13.40;99.30;;;;;;5071659;28;20193;-59
2024/03/18 00:54:29;;;;;;;33.67;28.37;;;13.40;99.30;;;;;;5071997;28;20213;-59
2024/03/18 00:56:55;;;;;;;38.77;28.93;;;13.40;99.20;;;;;;5068045;28;20216;-59
2024/03/18 00:59:21;;;;;;;32.60;28.77;;;13.40;99.20;;;;;;5071415;28;20651;-59
2024/03/18 01:01:47;;;;;;;37.50;31.07;;;13.40;99.20;;;;;;5069701;28;20543;-59
2024/03/18 01:04:13;;;;;;;35.03;30.40;;;13.40;99.20;;;;;;5069907;28;20212;-59
2024/03/18 01:06:40;;;;;;;32.73;27.77;;;13.30;99.20;;;;;;5071593;28;20201;-59
2024/03/18 01:09:07;;;;;;;38.73;33.00;;;13.30;99.20;;;;;;5071434;28;20209;-59
2024/03/18 01:11:33;;;;;;;36.03;32.00;;;13.30;99.50;;;;;;5078098;28;20231;-59
2024/03/18 01:13:59;;;;;;;37.90;30.77;;;13.30;99.20;;;;;;5085726;28;20209;-59
2024/03/18 01:16:25;;;;;;;37.37;30.23;;;13.30;99.30;;;;;;5069995;28;20595;-59
2024/03/18 01:18:53;;;;;;;40.80;29.43;;;13.20;99.30;;;;;;5068129;28;20213;-59
2024/03/18 01:21:21;;;;;;;32.30;26.87;;;13.20;99.40;;;;;;5069468;28;20222;-59
2024/03/18 01:23:47;;;;;;;34.13;28.03;;;13.20;99.40;;;;;;5070260;28;20198;-59
2024/03/18 01:26:14;;;;;;;36.20;30.17;;;13.20;99.40;;;;;;5070015;28;20206;-59
2024/03/18 01:28:41;;;;;;;34.20;27.57;;;13.20;99.40;;;;;;5067811;28;20215;-59
2024/03/18 01:31:07;;;;;;;31.23;27.73;;;13.20;99.40;;;;;;5066185;28;20205;-59
2024/03/18 01:33:33;;;;;;;34.77;28.47;;;13.20;99.40;;;;;;5066014;28;20207;-59
2024/03/18 01:36:00;;;;;;;32.40;28.77;;;13.20;99.40;;;;;;5085340;28;20262;-59
2024/03/18 01:38:28;;;;;;;35.40;27.73;;;13.20;99.40;;;;;;5069711;28;20254;-59
2024/03/18 01:40:55;;;;;;;34.90;29.13;;;13.20;99.40;;;;;;5069333;28;20221;-59
2024/03/18 01:43:22;;;;;;;36.57;29.00;;;13.10;99.40;;;;;;5071023;28;20188;-59
2024/03/18 01:45:48;;;;;;;38.30;29.17;;;13.10;99.40;;;;;;5068657;28;20196;-59
2024/03/18 01:48:15;;;;;;;35.23;28.90;;;13.10;99.40;;;;;;5070387;28;20198;-59
2024/03/18 01:50:41;;;;;;;33.37;27.23;;;13.10;99.40;;;;;;5068050;28;20202;-59
2024/03/18 01:53:10;;;;;;;39.43;30.40;;;13.10;99.40;;;;;;5071401;28;20620;-59
2024/03/18 01:55:43;;;;;;;40.73;30.70;;;13.10;99.40;;;;;;5071625;28;20646;-59
2024/03/18 01:58:09;;;;;;;36.40;28.77;;;13.10;99.40;;;;;;5066475;28;20209;-59
2024/03/18 02:00:37;;;;;;;39.47;30.63;;;13.10;99.40;;;;;;5070192;28;20260;-59
2024/03/18 02:03:08;;;;;;;34.67;28.40;;;13.10;99.50;;;;;;5068216;28;20205;-59
2024/03/18 02:05:36;;;;;;;39.77;30.53;;;13.10;99.50;;;;;;5070243;28;20189;-59
2024/03/18 02:08:03;;;;;;;38.17;30.97;;;13.00;99.50;;;;;;5066200;28;20213;-59
2024/03/18 02:10:29;;;;;;;35.53;27.90;;;13.00;99.50;;;;;;5068394;28;20199;-59
2024/03/18 02:13:00;;;;;;;38.10;29.83;;;13.00;99.50;;;;;;5069020;28;20551;-59
2024/03/18 02:15:27;;;;;;;34.40;28.17;;;13.00;99.50;;;;;;5070441;28;20636;-59
2024/03/18 02:17:53;;;;;;;39.90;28.27;;;13.00;99.50;;;;;;5075095;28;20202;-59
2024/03/18 02:20:23;;;;;;;41.27;32.90;;;13.00;99.50;;;;;;5077267;28;20299;-59
2024/03/18 02:22:50;;;;;;;37.90;31.17;;;13.00;99.50;;;;;;5075619;28;20201;-59
2024/03/18 02:25:17;;;;;;;42.50;33.10;;;13.00;99.60;;;;;;5076259;28;20719;-59
2024/03/18 02:27:44;;;;;;;47.67;30.83;;;13.00;99.60;;;;;;5074987;28;20198;-59
2024/03/18 02:30:11;;;;;;;41.87;31.47;;;13.00;99.60;;;;;;5076795;28;20201;-59
2024/03/18 02:32:41;;;;;;;42.23;31.50;;;13.00;99.60;;;;;;5075997;28;20649;-59
2024/03/18 02:35:16;;;;;;;44.50;32.97;;;13.00;99.60;;;;;;5075231;28;20201;-59
2024/03/18 02:37:46;;;;;;;38.43;30.40;;;13.00;99.50;;;;;;5075279;28;20198;-59
2024/03/18 02:40:13;;;;;;;56.13;33.90;;;13.00;99.50;;;;;;5075916;28;20227;-60
2024/03/18 02:42:40;;;;;;;36.77;30.97;;;13.00;99.50;;;;;;5074303;28;20214;-59
2024/03/18 02:45:11;;;;;;;40.83;31.67;;;13.00;99.50;;;;;;5077438;28;20213;-59
2024/03/18 02:47:42;;;;;;;42.67;30.40;;;13.00;99.60;;;;;;5074362;28;20190;-59
2024/03/18 02:50:17;;;;;;;40.40;31.43;;;13.00;99.50;;;;;;5072967;28;20209;-59
2024/03/18 02:52:43;;;;;;;44.87;32.93;;;13.00;99.80;;;;;;5072760;28;20201;-59
2024/03/18 02:55:09;;;;;;;39.97;31.17;;;13.00;99.60;;;;;;5075029;28;20267;-59
2024/03/18 02:57:35;;;;;;;41.47;30.23;;;13.00;99.70;;;;;;5076241;28;20664;-59
2024/03/18 03:00:05;;;;;;;45.47;32.07;;;13.00;99.70;;;;;;5075757;28;20262;-59
2024/03/18 03:02:32;;;;;;;39.10;29.97;;;13.00;99.70;;;;;;5057644;28;20205;-59
2024/03/18 03:04:59;;;;;;;44.90;31.80;;;13.00;99.70;;;;;;5078505;28;20212;-59
2024/03/18 03:07:25;;;;;;;39.90;29.07;;;13.00;99.80;;;;;;5073586;28;20205;-59
2024/03/18 03:09:51;;;;;;;38.53;29.83;;;13.00;99.60;;;;;;5072797;28;20817;-59
2024/03/18 03:12:17;;;;;;;43.90;31.63;;;13.00;99.70;;;;;;5075589;28;20205;-59
2024/03/18 03:14:44;;;;;;;49.93;32.67;;;13.00;99.70;;;;;;5074002;28;20201;-59
2024/03/18 03:17:10;;;;;;;44.57;31.83;;;13.00;99.70;;;;;;5071708;28;20194;-59
2024/03/18 03:19:38;;;;;;;40.13;30.77;;;13.00;99.70;;;;;;5069404;28;20217;-59
2024/03/18 03:22:04;;;;;;;40.43;31.87;;;13.00;99.60;;;;;;5076206;28;20190;-59
2024/03/18 03:24:30;;;;;;;40.40;31.00;;;13.00;99.60;;;;;;5074956;28;20638;-59
2024/03/18 03:26:56;;;;;;;43.13;31.33;;;13.00;99.60;;;;;;5070010;28;20196;-59
2024/03/18 03:29:22;;;;;;;43.50;32.57;;;13.00;99.60;;;;;;5088141;28;20661;-59
2024/03/18 03:31:48;;;;;;;42.27;32.10;;;13.00;99.60;;;;;;5071957;28;20208;-59
2024/03/18 03:34:15;;;;;;;44.00;31.70;;;13.00;99.60;;;;;;5074634;28;20681;-59
2024/03/18 03:36:44;;;;;;;40.00;30.87;;;13.10;99.60;;;;;;5068973;28;20638;-59
2024/03/18 03:39:11;;;;;;;35.63;28.97;;;13.10;99.50;;;;;;5073984;28;20216;-59
2024/03/18 03:41:38;;;;;;;41.10;30.00;;;13.10;99.50;;;;;;5074648;28;20194;-59
2024/03/18 03:44:04;;;;;;;35.73;29.63;;;13.10;99.40;;;;;;5064998;28;20206;-59
2024/03/18 03:46:30;;;;;;;43.83;31.47;;;13.10;99.20;;;;;;5073545;28;20209;-59
2024/03/18 03:48:57;;;;;;;38.80;30.87;;;13.10;99.20;;;;;;5074625;28;20197;-59
2024/03/18 03:51:23;;;;;;;38.97;29.10;;;13.10;99.20;;;;;;5072661;28;20209;-59
2024/03/18 03:53:50;;;;;;;33.63;28.27;;;13.00;99.10;;;;;;5069514;28;20557;-59
2024/03/18 03:56:16;;;;;;;40.50;29.10;;;13.00;99.10;;;;;;5072888;28;20206;-59
2024/03/18 03:58:46;;;;;;;38.50;28.73;;;13.00;99.10;;;;;;5074416;28;20201;-59
2024/03/18 04:01:12;;;;;;;41.07;30.63;;;12.90;99.00;;;;;;5073040;28;20241;-59
2024/03/18 04:03:38;;;;;;;41.33;29.40;;;12.90;99.00;;;;;;5069743;28;20231;-59
2024/03/18 04:06:04;;;;;;;38.00;29.03;;;12.90;99.00;;;;;;5072781;28;20216;-59
2024/03/18 04:08:31;;;;;;;38.93;28.87;;;12.80;99.00;;;;;;5056924;28;20198;-59
2024/03/18 04:10:57;;;;;;;37.17;29.93;;;12.80;99.00;;;;;;5070560;28;20202;-59
2024/03/18 04:13:24;;;;;;;37.60;28.37;;;12.80;99.10;;;;;;5073442;28;20208;-59
2024/03/18 04:15:50;;;;;;;36.33;27.93;;;12.80;99.10;;;;;;5071191;28;20668;-59
2024/03/18 04:18:16;;;;;;;39.97;28.47;;;12.80;99.20;;;;;;5069393;28;20213;-59
2024/03/18 04:20:43;;;;;;;41.17;29.47;;;12.80;99.20;;;;;;5070811;28;20228;-59
2024/03/18 04:23:10;;;;;;;42.80;29.13;;;12.70;99.10;;;;;;5071102;28;20231;-59
2024/03/18 04:25:36;;;;;;;41.40;29.17;;;12.70;99.30;;;;;;5071397;28;20205;-59
2024/03/18 04:28:06;;;;;;;42.37;28.77;;;12.60;99.00;;;;;;5071278;28;20205;-59
2024/03/18 04:30:34;;;;;;;41.37;29.60;;;12.60;99.00;;;;;;5075417;28;20205;-59
2024/03/18 04:33:01;;;;;;;39.87;29.77;;;12.60;99.00;;;;;;5074037;28;20677;-59
2024/03/18 04:35:27;;;;;;;39.23;29.63;;;12.60;99.00;;;;;;5071521;28;20217;-59
2024/03/18 04:37:55;;;;;;;42.60;29.50;;;12.50;98.90;;;;;;5072723;28;20201;-59
2024/03/18 04:40:24;;;;;;;40.30;28.50;;;12.50;98.90;;;;;;5072774;28;20220;-59
2024/03/18 04:42:50;;;;;;;41.90;30.63;;;12.50;99.10;;;;;;5072119;28;20212;-59
2024/03/18 04:45:19;;;;;;;41.27;29.97;;;12.40;99.10;;;;;;5072670;28;20193;-59
2024/03/18 04:47:50;;;;;;;43.07;30.43;;;12.50;99.20;;;;;;5072260;28;20206;-59
2024/03/18 04:50:21;;;;;;;38.23;28.83;;;12.40;99.20;;;;;;5073536;28;20209;-59
2024/03/18 04:52:48;;;;;;;39.23;28.93;;;12.40;99.20;;;;;;5074244;28;20208;-59
2024/03/18 04:55:15;;;;;;;37.50;28.90;;;12.40;99.30;;;;;;5073285;28;20208;-59
2024/03/18 04:57:41;;;;;;;41.17;30.50;;;12.40;99.30;;;;;;5071076;28;20210;-59
2024/03/18 05:00:11;;;;;;;40.27;29.27;;;12.50;99.40;;;;;;5072927;28;20248;-59
2024/03/18 05:02:41;;;;;;;44.67;29.40;;;12.50;99.40;;;;;;5071595;28;20200;-59
2024/03/18 05:05:09;;;;;;;42.93;29.47;;;12.50;99.30;;;;;;5071044;28;20634;-59
2024/03/18 05:07:36;;;;;;;41.93;30.70;;;12.50;99.30;;;;;;5073034;28;20578;-59
2024/03/18 05:10:03;;;;;;;38.13;28.07;;;12.60;99.30;;;;;;5071945;28;20225;-59
2024/03/18 05:12:30;;;;;;;40.40;28.43;;;12.60;99.30;;;;;;5072063;28;20204;-59
2024/03/18 05:14:57;;;;;;;37.93;29.30;;;12.60;99.30;;;;;;5070711;28;20208;-59
2024/03/18 05:17:24;;;;;;;42.93;29.67;;;12.60;99.50;;;;;;5069215;28;20225;-59
2024/03/18 05:19:51;;;;;;;35.07;27.93;;;12.70;99.20;;;;;;5069297;28;20216;-59
2024/03/18 05:22:18;;;;;;;38.07;28.50;;;12.70;99.20;;;;;;5071373;28;20198;-59
2024/03/18 05:24:45;;;;;;;41.03;28.90;;;12.70;99.20;;;;;;5072025;28;20216;-59
2024/03/18 05:27:12;;;;;;;37.50;28.33;;;12.70;99.20;;;;;;5071818;28;20574;-59
2024/03/18 05:29:39;;;;;;;39.20;27.37;;;12.80;99.20;;;;;;5071667;28;20775;-59
2024/03/18 05:32:13;;;;;;;35.90;26.97;;;12.80;99.10;;;;;;5071040;28;20761;-59
2024/03/18 05:34:39;;;;;;;33.47;26.87;;;12.80;99.10;;;;;;5070313;28;20280;-59
2024/03/18 05:37:06;;;;;;;34.27;26.00;;;12.90;99.00;;;;;;5069006;28;20242;-59
2024/03/18 05:39:33;;;;;;;32.67;26.27;;;12.90;99.00;;;;;;5072048;28;20208;-59
2024/03/18 05:41:59;;;;;;;38.40;26.03;;;12.90;98.90;;;;;;5068704;28;20209;-59
2024/03/18 05:44:26;;;;;;;33.43;25.77;;;12.90;98.80;;;;;;5068287;28;20197;-60
2024/03/18 05:46:52;;;;;;;35.87;25.37;;;13.00;98.80;;;;;;5071813;28;20219;-59
2024/03/18 05:49:19;;;;;;;33.67;25.33;;;13.00;98.80;;;;;;5068804;28;20220;-59
2024/03/18 05:51:48;;;;;;;37.70;26.00;;;13.00;98.80;;;;;;5071138;28;20214;-59
2024/03/18 05:54:17;;;;;;;32.07;24.17;;;13.00;98.80;;;;;;5055790;28;20202;-59
2024/03/18 05:56:44;;;;;;;30.50;24.20;;;13.00;98.80;;;;;;5072326;28;20219;-59
2024/03/18 05:59:11;;;;;;;32.87;23.73;;;13.00;98.80;;;;;;5070935;28;20244;-59
2024/03/18 06:01:40;;;;;;;34.17;25.83;;;13.10;98.80;;;;;;5071902;28;20512;-59
2024/03/18 06:04:08;;;;;;;30.07;23.43;;;13.10;98.70;;;;;;5068102;28;20227;-59
2024/03/18 06:06:34;;;;;;;31.93;23.10;;;13.10;98.70;;;;;;5071340;28;20640;-59
2024/03/18 06:09:04;;;;;;;29.43;22.47;;;13.10;98.60;;;;;;5070291;28;20204;-59
2024/03/18 06:11:31;;;;;;;28.17;21.73;;;13.20;98.60;;;;;;5072901;28;20193;-59
2024/03/18 06:13:57;;;;;;;40.93;23.10;;;13.20;98.50;;;;;;5064186;28;20221;-59
2024/03/18 06:16:23;;;;;;;30.00;22.83;;;13.30;98.40;;;;;;5069195;28;20205;-59
2024/03/18 06:18:50;;;;;;;31.00;23.10;;;13.30;98.30;;;;;;5069781;28;20676;-59
2024/03/18 06:21:17;;;;;;;28.07;23.07;;;13.30;98.60;;;;;;5067548;28;20236;-59
2024/03/18 06:23:48;;;;;;;30.23;21.80;;;13.30;98.20;;;;;;5070174;28;20201;-59
2024/03/18 06:26:14;;;;;;;28.20;22.23;;;13.30;98.30;;;;;;5069636;28;20186;-59
2024/03/18 06:28:42;;;;;;;29.37;22.03;;;13.40;98.20;;;;;;5068576;28;20188;-59
2024/03/18 06:31:10;;;;;;;32.50;21.93;;;13.40;98.20;;;;;;5071272;28;20198;-59
2024/03/18 06:33:36;;;;;;;32.17;23.60;;;13.40;98.20;;;;;;5066916;28;20607;-59
2024/03/18 06:36:09;;;;;;;37.10;24.17;;;13.50;98.20;;;;;;5072087;28;20255;-59
2024/03/18 06:38:38;;;;;;;30.20;21.63;;;13.50;98.20;;;;;;5070452;28;20259;-59
2024/03/18 06:41:05;;;;;;;25.87;21.20;;;13.60;98.20;;;;;;5054266;28;20214;-59
2024/03/18 06:43:32;;;;;;;29.27;23.30;;;13.60;98.10;;;;;;5072001;28;20202;-59
2024/03/18 06:45:58;;;;;;;30.80;22.90;;;13.70;98.10;;;;;;5068418;28;20205;-59
2024/03/18 06:48:25;;;;;;;32.43;22.60;;;13.70;98.10;;;;;;5070257;28;20216;-60
2024/03/18 06:50:52;;;;;;;30.70;23.87;;;13.80;98.00;;;;;;5070540;28;20194;-59
2024/03/18 06:53:18;;;;;;;30.37;23.77;;;13.80;98.00;;;;;;5070137;28;20204;-59
2024/03/18 06:55:44;;;;;;;31.87;23.50;;;13.90;97.90;;;;;;5066796;28;20207;-59
2024/03/18 06:58:11;;;;;;;31.73;23.57;;;13.90;97.80;;;;;;5072375;28;20201;-59
2024/03/18 07:00:37;;;;;;;37.40;24.83;;;13.90;97.80;;;;;;5051229;28;20241;-59
2024/03/18 07:03:04;;;;;;;29.97;23.73;;;14.00;97.80;;;;;;5072593;28;20200;-59
2024/03/18 07:05:30;;;;;;;31.67;24.67;;;14.10;97.80;;;;;;5074933;28;20205;-59
2024/03/18 07:07:57;;;;;;;35.40;25.33;;;14.20;97.80;;;;;;5075441;28;20216;-59
2024/03/18 07:10:24;;;;;;;35.50;25.17;;;14.20;97.80;;;;;;5090064;28;20192;-59
2024/03/18 07:12:50;;;;;;;35.63;26.20;;;14.30;97.70;;;;;;5070454;28;20537;-59
2024/03/18 07:15:17;;;;;;;38.80;27.07;;;14.30;97.70;;;;;;5070651;28;20204;-59
2024/03/18 07:17:44;;;;;;;35.07;26.63;;;14.40;97.80;;;;;;5071829;28;20229;-59
2024/03/18 07:20:11;;;;;;;39.53;27.17;;;14.50;97.80;;;;;;5073579;28;20210;-59
2024/03/18 07:22:40;;;;;;;40.70;27.07;;;14.50;97.70;;;;;;5083988;28;20267;-59
2024/03/18 07:25:11;;;;;;;32.97;25.97;;;14.60;97.80;;;;;;5071663;28;20669;-59
2024/03/18 07:27:39;;;;;;;39.37;26.97;;;14.60;97.70;;;;;;5071969;28;20206;-59
2024/03/18 07:30:11;;;;;;;33.27;25.87;;;14.70;97.70;;;;;;5071986;28;20635;-59
2024/03/18 07:32:37;;;;;;;37.90;25.53;;;14.80;97.70;;;;;;5067427;28;20410;-59
2024/03/18 07:35:04;;;;;;;33.30;25.57;;;14.80;97.60;;;;;;5072638;28;20206;-59
2024/03/18 07:37:32;;;;;;;31.70;25.03;;;14.90;97.50;;;;;;5069306;28;20190;-59
2024/03/18 07:39:58;;;;;;;37.10;25.00;;;15.00;97.40;;;;;;5071685;28;20272;-59
2024/03/18 07:42:25;;;;;;;32.50;24.73;;;15.10;97.30;;;;;;5071681;28;20255;-59
2024/03/18 07:44:51;;;;;;;33.63;25.23;;;15.20;97.20;;;;;;5070569;28;20572;-59
2024/03/18 07:47:18;;;;;;;34.83;24.97;;;15.20;97.10;;;;;;5073812;28;20252;-59
2024/03/18 07:49:44;;;;;;;30.17;22.80;;;15.30;97.00;;;;;;5072147;28;20215;-59
2024/03/18 07:52:10;;;;;;;38.23;24.27;;;15.40;96.90;;;;;;5071112;28;20198;-59
2024/03/18 07:54:36;;;;;;;36.57;24.23;;;15.40;96.80;;;;;;5073177;28;20600;-59
2024/03/18 07:57:02;;;;;;;33.93;25.47;;;15.50;96.70;;;;;;5072305;28;20202;-59
2024/03/18 07:59:29;;;;;;;30.47;24.13;;;15.60;96.60;;;;;;5073845;28;20247;-59
2024/03/18 08:01:55;;;;;;;33.13;24.03;;;15.60;96.50;;;;;;5070664;28;20198;-59
2024/03/18 08:04:21;;;;;;;29.50;24.10;;;15.70;96.40;;;;;;5072406;28;20192;-59
2024/03/18 08:06:47;;;;;;;31.53;23.97;;;15.80;96.40;;;;;;5074080;28;20553;-60
2024/03/18 08:09:14;;;;;;;31.33;24.97;;;15.90;96.30;;;;;;5072665;28;20195;-59
2024/03/18 08:11:45;;;;;;;33.13;24.23;;;15.90;96.10;;;;;;5071677;28;20647;-59
2024/03/18 08:14:11;;;;;;;30.27;24.07;;;16.00;96.00;;;;;;5066177;28;20196;-60
2024/03/18 08:16:38;;;;;;;30.03;23.87;;;16.10;95.80;;;;;;5072007;28;20197;-60
2024/03/18 08:19:06;;;;;;;31.83;22.90;;;16.10;95.70;;;;;;5072365;28;20204;-59
2024/03/18 08:21:35;;;;;;;31.90;23.37;;;16.20;95.60;;;;;;5068865;28;20565;-59
2024/03/18 08:24:03;;;;;;;29.87;24.17;;;16.30;95.50;;;;;;5070020;28;20198;-60
2024/03/18 08:26:32;;;;;;;33.07;23.27;;;16.30;95.10;;;;;;5070842;28;20203;-60
2024/03/18 08:28:59;;;;;;;32.23;24.03;;;16.40;94.50;;;;;;5064268;28;20189;-60
2024/03/18 08:31:25;;;;;;;34.90;24.07;;;16.40;94.30;;;;;;5072596;28;20574;-59
2024/03/18 08:33:55;;;;;;;31.23;24.70;;;16.40;94.40;;;;;;5069433;28;20297;-60
2024/03/18 08:36:22;;;;;;;32.97;24.87;;;16.40;94.60;;;;;;5071976;28;20195;-59
2024/03/18 08:38:49;;;;;;;30.43;23.57;;;16.50;94.60;;;;;;5071594;28;20202;-59
2024/03/18 08:41:15;;;;;;;32.43;24.47;;;16.50;94.50;;;;;;5072148;28;20645;-59
2024/03/18 08:43:41;;;;;;;28.77;23.30;;;16.60;94.30;;;;;;5073770;28;20197;-59
2024/03/18 08:46:08;;;;;;;31.30;24.30;;;16.60;94.10;;;;;;5072159;28;20203;-59
2024/03/18 08:48:34;;;;;;;29.83;24.23;;;16.70;93.90;;;;;;5073199;28;20312;-59
2024/03/18 08:51:02;;;;;;;31.67;24.07;;;16.70;93.60;;;;;;5055988;28;20592;-60
2024/03/18 08:53:28;;;;;;;31.93;25.10;;;16.70;93.50;;;;;;5073437;28;20242;-60
2024/03/18 08:55:55;;;;;;;30.17;24.40;;;16.70;93.40;;;;;;5070343;28;20192;-60
2024/03/18 08:58:21;;;;;;;34.63;25.67;;;16.70;93.40;;;;;;5080126;28;20193;-60
2024/03/18 09:00:50;;;;;;;32.27;24.17;;;16.70;93.30;;;;;;5088162;28;20239;-60
2024/03/18 09:03:17;;;;;;;34.00;26.13;;;16.70;93.20;;;;;;5072791;28;20717;-59
2024/03/18 09:05:43;;;;;;;33.00;25.97;;;16.70;93.20;;;;;;5069116;28;20201;-60
2024/03/18 09:08:09;;;;;;;32.83;24.33;;;16.70;93.30;;;;;;5072215;28;20205;-60
2024/03/18 09:10:37;;;;;;;29.57;24.27;;;16.80;93.20;;;;;;5072010;28;20696;-60
2024/03/18 09:13:03;;;;;;;30.37;23.77;;;16.80;93.00;;;;;;5072546;28;20210;-60
2024/03/18 09:15:30;;;;;;;30.80;24.70;;;16.80;92.90;;;;;;5072161;28;20186;-60
2024/03/18 09:17:56;;;;;;;33.43;26.80;;;16.80;93.00;;;;;;5070097;28;20202;-60
2024/03/18 09:20:22;;;;;;;32.57;26.90;;;16.90;93.10;;;;;;5056589;28;20220;-60
2024/03/18 09:22:48;;;;;;;35.73;27.67;;;16.90;93.00;;;;;;5072438;28;20208;-59
2024/03/18 09:25:18;;;;;;;34.60;27.50;;;17.00;93.10;;;;;;5067863;28;20430;-60
2024/03/18 09:27:44;;;;;;;35.27;27.43;;;17.00;93.10;;;;;;5068901;28;20200;-60
2024/03/18 09:30:10;;;;;;;40.47;27.67;;;17.00;93.10;;;;;;5071085;28;20212;-60
2024/03/18 09:32:36;;;;;;;41.20;29.80;;;17.10;93.10;;;;;;5072703;28;20671;-60
2024/03/18 09:35:02;;;;;;;37.73;29.33;;;17.10;92.90;;;;;;5068552;28;20205;-60
2024/03/18 09:37:29;;;;;;;41.90;31.20;;;17.10;92.90;;;;;;5069227;28;20516;-60
2024/03/18 09:39:56;;;;;;;41.23;33.20;;;17.10;92.80;;;;;;5071999;28;20224;-59
2024/03/18 09:42:22;;;;;;;39.13;32.00;;;17.20;92.70;;;;;;5071697;28;20205;-60
2024/03/18 09:44:51;;;;;;;37.80;30.63;;;17.20;92.50;;;;;;5072250;28;20201;-60
2024/03/18 09:47:22;;;;;;;35.10;29.90;;;17.20;92.30;;;;;;5071535;28;20211;-59
2024/03/18 09:49:52;;;;;;;40.97;29.83;;;17.20;92.30;;;;;;5084052;28;20209;-60
2024/03/18 09:52:20;;;;;;;39.10;32.03;;;17.20;92.40;;;;;;5070470;28;20210;-60
2024/03/18 09:54:49;;;;;;;43.57;33.10;;;17.20;92.50;;;;;;5070548;28;21390;-60
2024/03/18 09:57:18;;;;;;;40.43;31.40;;;17.30;92.50;;;;;;5070070;28;20210;-60
2024/03/18 09:59:48;;;;;;;40.07;31.50;;;17.30;92.50;;;;;;5070869;28;20253;-60
2024/03/18 10:02:16;;;;;;;40.13;31.77;;;17.30;92.40;;;;;;5071023;28;20205;-60
2024/03/18 10:04:46;;;;;;;39.87;31.60;;;17.30;92.20;;;;;;5071635;28;20208;-60
2024/03/18 10:07:14;;;;;;;40.87;31.50;;;17.30;92.10;;;;;;5072278;28;20185;-59
2024/03/18 10:09:44;;;;;;;35.27;28.70;;;17.30;92.10;;;;;;5056964;28;20251;-60
2024/03/18 10:12:15;;;;;;;37.73;28.20;;;17.30;92.40;;;;;;5072551;28;20197;-60
2024/03/18 10:14:42;;;;;;;38.37;28.47;;;17.30;92.60;;;;;;5068879;28;20214;-60
2024/03/18 10:17:18;;;;;;;33.83;26.73;;;17.40;92.70;;;;;;5069273;28;20208;-60
2024/03/18 10:19:45;;;;;;;41.47;26.70;;;17.50;92.70;;;;;;5068646;28;20217;-60
2024/03/18 10:22:13;;;;;;;30.43;24.00;;;17.50;92.70;;;;;;5069070;28;20219;-59
2024/03/18 10:24:43;;;;;;;33.20;25.67;;;17.60;92.50;;;;;;5081588;28;20760;-60
2024/03/18 10:27:11;;;;;;;31.93;25.13;;;17.70;92.20;;;;;;5067917;28;20223;-60
2024/03/18 10:29:40;;;;;;;40.37;25.27;;;17.60;92.10;;;;;;5069825;28;20212;-60
2024/03/18 10:32:26;;;;;;;32.17;24.10;;;17.70;92.00;;;;;;5070766;28;20637;-60
2024/03/18 10:35:00;;;;;;;30.60;24.50;;;17.70;92.00;;;;;;5069730;28;20263;-60
2024/03/18 10:37:27;;;;;;;30.43;25.73;;;17.70;91.90;;;;;;5072507;28;20196;-59
2024/03/18 10:40:05;;;;;;;31.13;25.13;;;17.80;91.90;;;;;;5075809;28;20220;-59
2024/03/18 10:42:32;;;;;;;29.63;22.53;;;17.80;91.90;;;;;;5073139;28;20185;-60
2024/03/18 10:45:19;;;;;;;29.17;23.47;;;17.90;92.00;;;;;;5075620;28;20522;-59
2024/03/18 10:47:45;;;;;;;27.30;22.77;;;18.00;92.10;;;;;;5074663;28;20211;-60
2024/03/18 10:50:16;;;;;;;29.67;22.97;;;18.20;92.00;;;;;;5074895;28;20266;-60
2024/03/18 10:52:43;;;;;;;30.43;22.43;;;18.30;91.50;;;;;;5075375;28;20201;-60
2024/03/18 10:55:18;;;;;;;29.60;22.83;;;18.50;90.90;;;;;;5071396;28;20201;-60
2024/03/18 10:57:46;;;;;;;35.27;24.10;;;18.70;90.70;;;;;;5091281;28;20212;-60
2024/03/18 11:00:17;;;;;;;30.03;23.63;;;18.80;90.40;;;;;;5074825;28;20233;-60
2024/03/18 11:02:57;;;;;;;27.30;22.90;;;19.00;90.00;;;;;;5075160;28;20197;-60
2024/03/18 11:05:26;;;;;;;30.17;22.57;;;19.20;89.50;;;;;;5075373;28;20512;-59
2024/03/18 11:07:53;;;;;;;24.37;21.03;;;19.40;89.50;;;;;;5075220;28;20209;-60
2024/03/18 11:10:20;;;;;;;26.93;21.03;;;19.60;89.10;;;;;;5074395;28;20634;-60
2024/03/18 11:12:47;;;;;;;25.77;22.83;;;19.70;88.00;;;;;;5072360;28;20632;-60
2024/03/18 11:15:15;;;;;;;25.17;20.03;;;19.70;87.10;;;;;;5074178;28;20202;-60
2024/03/18 11:17:45;;;;;;;30.27;22.27;;;19.60;86.00;;;;;;5073778;28;20670;-60
2024/03/18 11:20:20;;;;;;;31.17;23.97;;;19.50;86.20;;;;;;5074826;28;20209;-60
2024/03/18 11:22:49;;;;;;;29.70;24.40;;;19.40;86.90;;;;;;5072487;28;20567;-60
2024/03/18 11:25:19;;;;;;;31.80;22.13;;;19.30;86.80;;;;;;5073548;28;20211;-60
2024/03/18 11:27:50;;;;;;;30.03;23.90;;;19.30;86.80;;;;;;5073096;28;20259;-60
2024/03/18 11:30:28;;;;;;;28.27;23.00;;;19.20;86.70;;;;;;5056722;28;20205;-60
2024/03/18 11:32:56;;;;;;;32.17;23.23;;;19.10;87.40;;;;;;5074462;28;20211;-60
2024/03/18 11:35:23;;;;;;;36.43;26.50;;;19.10;87.50;;;;;;5072815;28;20201;-59
2024/03/18 11:37:49;;;;;;;29.97;25.73;;;19.00;87.60;;;;;;5087364;28;20229;-60
2024/03/18 11:40:20;;;;;;;32.53;26.47;;;19.00;88.20;;;;;;5073698;28;20278;-60
2024/03/18 11:42:47;;;;;;;39.37;29.37;;;18.80;88.40;;;;;;5075057;28;20219;-60
2024/03/18 11:45:20;;;;;;;36.33;28.93;;;18.80;89.00;;;;;;5072915;28;20218;-60
2024/03/18 11:47:48;;;;;;;38.47;29.23;;;18.70;89.70;;;;;;5072572;28;20630;-60
2024/03/18 11:50:14;;;;;;;43.37;30.87;;;18.70;90.00;;;;;;5074389;28;20261;-59
2024/03/18 11:52:41;;;;;;;40.40;30.93;;;18.60;90.00;;;;;;5072892;28;20203;-60
2024/03/18 11:55:13;;;;;;;35.57;28.43;;;18.60;90.00;;;;;;5072172;28;20963;-60
2024/03/18 11:57:40;;;;;;;36.17;31.43;;;18.50;90.00;;;;;;5073912;28;20665;-60
2024/03/18 12:00:11;;;;;;;40.87;33.07;;;18.50;90.20;;;;;;5070249;28;20237;-60
2024/03/18 12:02:40;;;;;;;42.13;31.67;;;18.50;90.20;;;;;;5080953;28;20279;-60
2024/03/18 12:05:08;;;;;;;41.00;32.53;;;18.50;90.30;;;;;;5069619;28;20197;-60
2024/03/18 12:07:34;;;;;;;43.53;32.90;;;18.50;90.50;;;;;;5070305;28;20634;-59
2024/03/18 12:10:04;;;;;;;41.80;33.80;;;18.50;90.60;;;;;;5072891;28;20589;-59
2024/03/18 12:12:35;;;;;;;39.03;33.33;;;18.40;90.50;;;;;;5072726;28;20209;-60
2024/03/18 12:15:04;;;;;;;41.77;33.67;;;18.40;90.60;;;;;;5071032;28;20246;-60
2024/03/18 12:17:32;;;;;;;46.63;35.27;;;18.40;90.50;;;;;;5063729;28;20221;-59
2024/03/18 12:20:03;;;;;;;45.60;35.40;;;18.40;90.60;;;;;;5071914;28;20235;-60
2024/03/18 12:22:30;;;;;;;47.00;36.67;;;18.30;90.80;;;;;;5070478;28;20196;-59
2024/03/18 12:30:32;;;;;;;50.00;39.33;;;18.30;91.40;;;;;;5088517;28;20205;-59
2024/03/18 12:33:03;;;;;;;54.63;40.27;;;18.20;91.50;;;;;;5073580;28;20641;-59
2024/03/18 12:35:29;;;;;;;50.63;38.83;;;18.30;91.70;;;;;;5073590;28;20556;-60